CSN3271 ZLYS-ZUUU
Flight info
| Callsign | CSN3271 |
|---|---|
| Flight time | 1h 24m |
| Altitude | 35100 |
| Route | LUVAR L888 BIGOR W9 LADUP LADU2E |
| Aircraft | A320/M-SDE3FGHIRWY/LB1 |
Departure
| Time | 2026-05-09 03:10 |
|---|---|
| Airport | Yushu Batang Airport (ZLYS) |
Arrival
| Time | 2026-05-09 04:35 |
|---|---|
| Airport | Chengdu Shuangliu International Airport (ZUUU) |
| Time | Latitude | Longitude | Altitude | Speed | Heading |
|---|---|---|---|---|---|
| 2026-05-09 03:10 | 32.82309 | 97.11717 | 13929 ft | 241 kts | 89° |
| 2026-05-09 03:10 | 32.82286 | 97.13763 | 14062 ft | 253 kts | 90° |
| 2026-05-09 03:10 | 32.81999 | 97.15846 | 14337 ft | 256 kts | 107° |
| 2026-05-09 03:10 | 32.81423 | 97.17832 | 14965 ft | 252 kts | 107° |
| 2026-05-09 03:11 | 32.80867 | 97.19794 | 15546 ft | 250 kts | 107° |
| 2026-05-09 03:11 | 32.80317 | 97.21765 | 16117 ft | 251 kts | 107° |
| 2026-05-09 03:11 | 32.79768 | 97.23740 | 16636 ft | 252 kts | 107° |
| 2026-05-09 03:11 | 32.79215 | 97.25729 | 17130 ft | 255 kts | 107° |
| 2026-05-09 03:12 | 32.78609 | 97.27728 | 17616 ft | 258 kts | 111° |
| 2026-05-09 03:12 | 32.77874 | 97.29686 | 18103 ft | 261 kts | 115° |
| 2026-05-09 03:12 | 32.77007 | 97.31598 | 18591 ft | 265 kts | 119° |
| 2026-05-09 03:12 | 32.76012 | 97.33457 | 19006 ft | 268 kts | 123° |
| 2026-05-09 03:13 | 32.73762 | 97.37053 | 19800 ft | 275 kts | 126° |
| 2026-05-09 03:13 | 32.72601 | 97.38881 | 20179 ft | 278 kts | 126° |
| 2026-05-09 03:13 | 32.71829 | 97.40097 | 20411 ft | 281 kts | 126° |
| 2026-05-09 03:14 | 32.70641 | 97.41963 | 20815 ft | 285 kts | 127° |
| 2026-05-09 03:14 | 32.69444 | 97.43839 | 21410 ft | 285 kts | 127° |
| 2026-05-09 03:14 | 32.68237 | 97.45725 | 22014 ft | 289 kts | 128° |
| 2026-05-09 03:14 | 32.67019 | 97.47636 | 22598 ft | 293 kts | 128° |
| 2026-05-09 03:15 | 32.65782 | 97.49581 | 23147 ft | 298 kts | 129° |
| 2026-05-09 03:15 | 32.64524 | 97.51552 | 23704 ft | 302 kts | 128° |
| 2026-05-09 03:15 | 32.63247 | 97.53554 | 24190 ft | 306 kts | 128° |
| 2026-05-09 03:15 | 32.61955 | 97.55584 | 24678 ft | 310 kts | 129° |
| 2026-05-09 03:16 | 32.60645 | 97.57636 | 25155 ft | 314 kts | 128° |
| 2026-05-09 03:16 | 32.59357 | 97.59744 | 25649 ft | 317 kts | 127° |
| 2026-05-09 03:16 | 32.58131 | 97.61936 | 26110 ft | 321 kts | 124° |
| 2026-05-09 03:16 | 32.56980 | 97.64186 | 26563 ft | 325 kts | 122° |
| 2026-05-09 03:17 | 32.55867 | 97.66536 | 27002 ft | 329 kts | 120° |
| 2026-05-09 03:17 | 32.54799 | 97.68954 | 27455 ft | 333 kts | 119° |
| 2026-05-09 03:17 | 32.53779 | 97.71438 | 27920 ft | 337 kts | 117° |
| 2026-05-09 03:17 | 32.52810 | 97.73988 | 28349 ft | 341 kts | 115° |
| 2026-05-09 03:18 | 32.51895 | 97.76596 | 28792 ft | 345 kts | 114° |
| 2026-05-09 03:18 | 32.51039 | 97.79268 | 29214 ft | 349 kts | 112° |
| 2026-05-09 03:18 | 32.50247 | 97.82005 | 29633 ft | 353 kts | 110° |
| 2026-05-09 03:18 | 32.49529 | 97.84804 | 30064 ft | 357 kts | 108° |
| 2026-05-09 03:19 | 32.48881 | 97.87660 | 30449 ft | 361 kts | 106° |
| 2026-05-09 03:19 | 32.48303 | 97.90574 | 30797 ft | 365 kts | 105° |
| 2026-05-09 03:19 | 32.47731 | 97.93518 | 31152 ft | 369 kts | 105° |
| 2026-05-09 03:19 | 32.47145 | 97.96495 | 31489 ft | 373 kts | 105° |
| 2026-05-09 03:20 | 32.46551 | 97.99496 | 31838 ft | 376 kts | 105° |
| 2026-05-09 03:20 | 32.45950 | 98.02522 | 32192 ft | 379 kts | 105° |
| 2026-05-09 03:20 | 32.45342 | 98.05576 | 32529 ft | 383 kts | 105° |
| 2026-05-09 03:20 | 32.44729 | 98.08661 | 32878 ft | 387 kts | 105° |
| 2026-05-09 03:21 | 32.44249 | 98.11818 | 33233 ft | 392 kts | 98° |
| 2026-05-09 03:21 | 32.44084 | 98.15055 | 33566 ft | 397 kts | 91° |
| 2026-05-09 03:21 | 32.44222 | 98.18332 | 33902 ft | 401 kts | 84° |
| 2026-05-09 03:21 | 32.44656 | 98.21604 | 34207 ft | 404 kts | 78° |
| 2026-05-09 03:22 | 32.45303 | 98.24853 | 34494 ft | 408 kts | 77° |
| 2026-05-09 03:22 | 32.45966 | 98.28137 | 34720 ft | 412 kts | 76° |
| 2026-05-09 03:22 | 32.46635 | 98.31454 | 34960 ft | 416 kts | 76° |
| 2026-05-09 03:22 | 32.47310 | 98.34818 | 35051 ft | 425 kts | 76° |
| 2026-05-09 03:23 | 32.47999 | 98.38273 | 35073 ft | 436 kts | 76° |
| 2026-05-09 03:23 | 32.48705 | 98.41815 | 35074 ft | 448 kts | 76° |
| 2026-05-09 03:23 | 32.49430 | 98.45449 | 35072 ft | 459 kts | 76° |
| 2026-05-09 03:23 | 32.50176 | 98.49184 | 35071 ft | 471 kts | 76° |
| 2026-05-09 03:24 | 32.50938 | 98.53009 | 35073 ft | 482 kts | 76° |
| 2026-05-09 03:24 | 32.51711 | 98.56909 | 35341 ft | 485 kts | 76° |
| 2026-05-09 03:24 | 32.53270 | 98.64784 | 35416 ft | 503 kts | 76° |
| 2026-05-09 03:25 | 32.54871 | 98.72908 | 35413 ft | 508 kts | 77° |
| 2026-05-09 03:25 | 32.56471 | 98.81056 | 35418 ft | 508 kts | 77° |
| 2026-05-09 03:26 | 32.58063 | 98.89230 | 35410 ft | 509 kts | 78° |
| 2026-05-09 03:26 | 32.58502 | 98.93389 | 35410 ft | 508 kts | 89° |
| 2026-05-09 03:26 | 32.58367 | 98.97560 | 35413 ft | 506 kts | 99° |
| 2026-05-09 03:27 | 32.56468 | 99.05494 | 35406 ft | 499 kts | 118° |
| 2026-05-09 03:27 | 32.52792 | 99.12389 | 35402 ft | 494 kts | 129° |
| 2026-05-09 03:28 | 32.48818 | 99.19042 | 35397 ft | 495 kts | 129° |
| 2026-05-09 03:28 | 32.44841 | 99.25711 | 35392 ft | 495 kts | 129° |
| 2026-05-09 03:29 | 32.40860 | 99.32371 | 35389 ft | 496 kts | 129° |
| 2026-05-09 03:29 | 32.36866 | 99.39028 | 35392 ft | 496 kts | 129° |
| 2026-05-09 03:30 | 32.32890 | 99.45641 | 35395 ft | 497 kts | 129° |
| 2026-05-09 03:30 | 32.28887 | 99.52294 | 35388 ft | 497 kts | 129° |
| 2026-05-09 03:31 | 32.24883 | 99.58945 | 35375 ft | 497 kts | 129° |
| 2026-05-09 03:31 | 32.20876 | 99.65597 | 35376 ft | 497 kts | 129° |
| 2026-05-09 03:32 | 32.16859 | 99.72243 | 35379 ft | 497 kts | 130° |
| 2026-05-09 03:32 | 32.12837 | 99.78885 | 35376 ft | 498 kts | 130° |
| 2026-05-09 03:33 | 32.08809 | 99.85523 | 35373 ft | 497 kts | 130° |
| 2026-05-09 03:33 | 32.04703 | 99.92059 | 35364 ft | 493 kts | 137° |
| 2026-05-09 03:34 | 32.00422 | 99.96348 | 35360 ft | 480 kts | 154° |
| 2026-05-09 03:34 | 31.94404 | 99.99326 | 35353 ft | 464 kts | 173° |
| 2026-05-09 03:35 | 31.88094 | 99.99991 | 35349 ft | 451 kts | 186° |
| 2026-05-09 03:35 | 31.81801 | 99.99980 | 35356 ft | 453 kts | 186° |
| 2026-05-09 03:36 | 31.75498 | 99.99994 | 35353 ft | 453 kts | 186° |
| 2026-05-09 03:36 | 31.69187 | 100.00006 | 35359 ft | 454 kts | 187° |
| 2026-05-09 03:37 | 31.62876 | 100.00000 | 35358 ft | 453 kts | 187° |
| 2026-05-09 03:37 | 31.56566 | 99.99993 | 35360 ft | 454 kts | 187° |
| 2026-05-09 03:38 | 31.50251 | 99.99995 | 35363 ft | 455 kts | 188° |
| 2026-05-09 03:38 | 31.43934 | 99.99996 | 35354 ft | 452 kts | 188° |
| 2026-05-09 03:39 | 31.37618 | 99.99993 | 35372 ft | 454 kts | 188° |
| 2026-05-09 03:39 | 31.31292 | 99.99996 | 35378 ft | 455 kts | 189° |
| 2026-05-09 03:40 | 31.25001 | 99.99994 | 35372 ft | 454 kts | 189° |
| 2026-05-09 03:40 | 31.18650 | 99.99995 | 35374 ft | 453 kts | 189° |
| 2026-05-09 03:41 | 31.12345 | 99.99999 | 35371 ft | 453 kts | 189° |
| 2026-05-09 03:41 | 31.06087 | 100.00000 | 35366 ft | 452 kts | 189° |
| 2026-05-09 03:42 | 30.99795 | 100.00003 | 35356 ft | 452 kts | 189° |
| 2026-05-09 03:42 | 30.93518 | 100.00004 | 35340 ft | 450 kts | 190° |
| 2026-05-09 03:43 | 30.87257 | 99.99999 | 35336 ft | 449 kts | 189° |
| 2026-05-09 03:43 | 30.81019 | 100.00003 | 35329 ft | 447 kts | 189° |
| 2026-05-09 03:44 | 30.74794 | 100.00004 | 35318 ft | 447 kts | 189° |
| 2026-05-09 03:44 | 30.68574 | 100.00000 | 35299 ft | 447 kts | 189° |
| 2026-05-09 03:45 | 30.62343 | 99.99993 | 35278 ft | 448 kts | 189° |
| 2026-05-09 03:45 | 30.56110 | 99.99996 | 35260 ft | 447 kts | 188° |
| 2026-05-09 03:46 | 30.49860 | 100.00296 | 35254 ft | 463 kts | 176° |
| 2026-05-09 03:46 | 30.46778 | 100.01594 | 35245 ft | 483 kts | 159° |
| 2026-05-09 03:46 | 30.44041 | 100.03987 | 35240 ft | 506 kts | 141° |
| 2026-05-09 03:47 | 30.41981 | 100.07368 | 35229 ft | 524 kts | 121° |
| 2026-05-09 03:47 | 30.40651 | 100.11330 | 35231 ft | 530 kts | 114° |
| 2026-05-09 03:47 | 30.38247 | 100.19447 | 35234 ft | 534 kts | 113° |
| 2026-05-09 03:48 | 30.35897 | 100.27623 | 35239 ft | 536 kts | 113° |
| 2026-05-09 03:48 | 30.33504 | 100.35805 | 35215 ft | 535 kts | 114° |
| 2026-05-09 03:49 | 30.31067 | 100.43955 | 35224 ft | 536 kts | 114° |
| 2026-05-09 03:49 | 30.28639 | 100.52051 | 35235 ft | 538 kts | 115° |
| 2026-05-09 03:50 | 30.26207 | 100.60198 | 35199 ft | 535 kts | 115° |
| 2026-05-09 03:50 | 30.23761 | 100.68341 | 35191 ft | 537 kts | 114° |
| 2026-05-09 03:51 | 30.22170 | 100.76854 | 35196 ft | 548 kts | 97° |
| 2026-05-09 03:51 | 30.21480 | 100.85628 | 35209 ft | 549 kts | 98° |
| 2026-05-09 03:52 | 30.20773 | 100.94396 | 35208 ft | 547 kts | 98° |
| 2026-05-09 03:52 | 30.20058 | 101.03152 | 35211 ft | 548 kts | 98° |
| 2026-05-09 03:53 | 30.19339 | 101.11942 | 35237 ft | 551 kts | 98° |
| 2026-05-09 03:53 | 30.18598 | 101.20773 | 35236 ft | 552 kts | 98° |
| 2026-05-09 03:54 | 30.17863 | 101.29540 | 35249 ft | 551 kts | 98° |
| 2026-05-09 03:54 | 30.17119 | 101.38365 | 35277 ft | 552 kts | 98° |
| 2026-05-09 03:55 | 30.16373 | 101.47200 | 35289 ft | 553 kts | 97° |
| 2026-05-09 03:55 | 30.15623 | 101.56039 | 35324 ft | 553 kts | 98° |
| 2026-05-09 03:56 | 30.14880 | 101.64877 | 35340 ft | 552 kts | 97° |
| 2026-05-09 03:56 | 30.15206 | 101.73752 | 35358 ft | 555 kts | 79° |
| 2026-05-09 03:57 | 30.17511 | 101.82209 | 35369 ft | 551 kts | 63° |
| 2026-05-09 03:57 | 30.20522 | 101.90335 | 35380 ft | 550 kts | 64° |
| 2026-05-09 03:58 | 30.23530 | 101.98523 | 35384 ft | 552 kts | 64° |
| 2026-05-09 03:58 | 30.26521 | 102.06689 | 35406 ft | 553 kts | 64° |
| 2026-05-09 03:59 | 30.29509 | 102.14823 | 35385 ft | 551 kts | 64° |
| 2026-05-09 03:59 | 30.32494 | 102.22991 | 35397 ft | 552 kts | 64° |
| 2026-05-09 04:00 | 30.33985 | 102.27077 | 35397 ft | 552 kts | 64° |
| 2026-05-09 04:00 | 30.38314 | 102.38970 | 35394 ft | 555 kts | 64° |
| 2026-05-09 04:01 | 30.41302 | 102.47221 | 35391 ft | 555 kts | 64° |
| 2026-05-09 04:01 | 30.44289 | 102.55472 | 35384 ft | 556 kts | 64° |
| 2026-05-09 04:02 | 30.47271 | 102.63714 | 35375 ft | 552 kts | 64° |
| 2026-05-09 04:02 | 30.50226 | 102.71930 | 35372 ft | 551 kts | 64° |
| 2026-05-09 04:03 | 30.53182 | 102.80164 | 35357 ft | 554 kts | 63° |
| 2026-05-09 04:03 | 30.56336 | 102.88967 | 35358 ft | 554 kts | 64° |
| 2026-05-09 04:04 | 30.59281 | 102.97213 | 35355 ft | 552 kts | 64° |
| 2026-05-09 04:04 | 30.62201 | 103.05420 | 34646 ft | 558 kts | 64° |
| 2026-05-09 04:05 | 30.63664 | 103.09626 | 33905 ft | 561 kts | 65° |
| 2026-05-09 04:05 | 30.65094 | 103.13823 | 33389 ft | 556 kts | 66° |
| 2026-05-09 04:05 | 30.66470 | 103.17995 | 32825 ft | 552 kts | 69° |
| 2026-05-09 04:05 | 30.67457 | 103.22293 | 32303 ft | 549 kts | 78° |
| 2026-05-09 04:06 | 30.67953 | 103.26683 | 31719 ft | 546 kts | 86° |
| 2026-05-09 04:06 | 30.67956 | 103.31071 | 31159 ft | 541 kts | 94° |
| 2026-05-09 04:06 | 30.67588 | 103.35407 | 30564 ft | 537 kts | 97° |
| 2026-05-09 04:06 | 30.67198 | 103.39696 | 29908 ft | 533 kts | 97° |
| 2026-05-09 04:07 | 30.66810 | 103.43967 | 29146 ft | 529 kts | 96° |
| 2026-05-09 04:07 | 30.66419 | 103.48205 | 28304 ft | 527 kts | 97° |
| 2026-05-09 04:07 | 30.66024 | 103.52434 | 27406 ft | 526 kts | 97° |
| 2026-05-09 04:07 | 30.65629 | 103.56652 | 26486 ft | 524 kts | 96° |
| 2026-05-09 04:08 | 30.65236 | 103.60855 | 25568 ft | 523 kts | 96° |
| 2026-05-09 04:08 | 30.64842 | 103.65044 | 24627 ft | 521 kts | 96° |
| 2026-05-09 04:08 | 30.64436 | 103.69177 | 24224 ft | 507 kts | 99° |
| 2026-05-09 04:08 | 30.63587 | 103.73004 | 24108 ft | 486 kts | 112° |
| 2026-05-09 04:09 | 30.62090 | 103.76426 | 23995 ft | 465 kts | 125° |
| 2026-05-09 04:09 | 30.60095 | 103.79273 | 23882 ft | 446 kts | 137° |
| 2026-05-09 04:09 | 30.57748 | 103.81514 | 23551 ft | 433 kts | 148° |
| 2026-05-09 04:09 | 30.55090 | 103.83181 | 22376 ft | 439 kts | 161° |
| 2026-05-09 04:10 | 30.52139 | 103.84143 | 21203 ft | 444 kts | 173° |
| 2026-05-09 04:10 | 30.49049 | 103.84397 | 20087 ft | 447 kts | 184° |
| 2026-05-09 04:10 | 30.45993 | 103.83923 | 19455 ft | 438 kts | 195° |
| 2026-05-09 04:10 | 30.43163 | 103.82826 | 19216 ft | 420 kts | 206° |
| 2026-05-09 04:11 | 30.40669 | 103.81224 | 19053 ft | 403 kts | 217° |
| 2026-05-09 04:11 | 30.38573 | 103.79199 | 19064 ft | 382 kts | 227° |
| 2026-05-09 04:11 | 30.36912 | 103.76909 | 19067 ft | 363 kts | 237° |
| 2026-05-09 04:11 | 30.35660 | 103.74450 | 19066 ft | 345 kts | 246° |
| 2026-05-09 04:12 | 30.34804 | 103.71926 | 19066 ft | 330 kts | 254° |
| 2026-05-09 04:12 | 30.34306 | 103.69390 | 19070 ft | 316 kts | 262° |
| 2026-05-09 04:12 | 30.34133 | 103.66902 | 19067 ft | 304 kts | 269° |
| 2026-05-09 04:12 | 30.34187 | 103.64501 | 19067 ft | 294 kts | 274° |
| 2026-05-09 04:13 | 30.34365 | 103.62187 | 19067 ft | 284 kts | 276° |
| 2026-05-09 04:13 | 30.34591 | 103.59962 | 19065 ft | 273 kts | 277° |
| 2026-05-09 04:13 | 30.34825 | 103.57822 | 19069 ft | 263 kts | 277° |
| 2026-05-09 04:13 | 30.35047 | 103.55747 | 19067 ft | 257 kts | 276° |
| 2026-05-09 04:14 | 30.35258 | 103.53700 | 19074 ft | 256 kts | 276° |
| 2026-05-09 04:14 | 30.35463 | 103.51655 | 19072 ft | 255 kts | 276° |
| 2026-05-09 04:14 | 30.35662 | 103.49613 | 19076 ft | 255 kts | 276° |
| 2026-05-09 04:14 | 30.35794 | 103.48260 | 19075 ft | 255 kts | 277° |
| 2026-05-09 04:15 | 30.36234 | 103.45587 | 19077 ft | 256 kts | 284° |
| 2026-05-09 04:15 | 30.36784 | 103.43625 | 19076 ft | 256 kts | 290° |
| 2026-05-09 04:15 | 30.37529 | 103.41746 | 19078 ft | 257 kts | 297° |
| 2026-05-09 04:15 | 30.38466 | 103.39984 | 19082 ft | 258 kts | 303° |
| 2026-05-09 04:16 | 30.39206 | 103.38868 | 19079 ft | 259 kts | 308° |
| 2026-05-09 04:16 | 30.40443 | 103.37343 | 19079 ft | 260 kts | 314° |
| 2026-05-09 04:16 | 30.41836 | 103.35987 | 19083 ft | 262 kts | 321° |
| 2026-05-09 04:16 | 30.43885 | 103.34488 | 19088 ft | 265 kts | 330° |
| 2026-05-09 04:17 | 30.44989 | 103.33885 | 19087 ft | 266 kts | 334° |
| 2026-05-09 04:17 | 30.46741 | 103.33169 | 19091 ft | 271 kts | 341° |
| 2026-05-09 04:17 | 30.48704 | 103.32669 | 19094 ft | 306 kts | 349° |
| 2026-05-09 04:17 | 30.50938 | 103.32470 | 19096 ft | 338 kts | 358° |
| 2026-05-09 04:18 | 30.53380 | 103.32695 | 19098 ft | 365 kts | 7° |
| 2026-05-09 04:18 | 30.55896 | 103.33427 | 19094 ft | 378 kts | 17° |
| 2026-05-09 04:18 | 30.58314 | 103.34677 | 19090 ft | 383 kts | 27° |
| 2026-05-09 04:18 | 30.60527 | 103.36418 | 19092 ft | 386 kts | 38° |
| 2026-05-09 04:19 | 30.62453 | 103.38597 | 19087 ft | 388 kts | 48° |
| 2026-05-09 04:19 | 30.64031 | 103.41142 | 19086 ft | 389 kts | 58° |
| 2026-05-09 04:19 | 30.65201 | 103.43976 | 19085 ft | 390 kts | 69° |
| 2026-05-09 04:19 | 30.65920 | 103.47016 | 19084 ft | 391 kts | 80° |
| 2026-05-09 04:20 | 30.66184 | 103.50154 | 19075 ft | 392 kts | 87° |
| 2026-05-09 04:20 | 30.66089 | 103.53311 | 19036 ft | 392 kts | 96° |
| 2026-05-09 04:20 | 30.65782 | 103.56453 | 18798 ft | 390 kts | 97° |
| 2026-05-09 04:20 | 30.65318 | 103.59547 | 18568 ft | 389 kts | 105° |
| 2026-05-09 04:21 | 30.64443 | 103.62505 | 18317 ft | 387 kts | 114° |
| 2026-05-09 04:21 | 30.63201 | 103.65262 | 18056 ft | 384 kts | 123° |
| 2026-05-09 04:21 | 30.59773 | 103.69922 | 17537 ft | 378 kts | 141° |
| 2026-05-09 04:22 | 30.57666 | 103.71726 | 17278 ft | 375 kts | 149° |
| 2026-05-09 04:22 | 30.55376 | 103.73129 | 17022 ft | 372 kts | 158° |
| 2026-05-09 04:22 | 30.52997 | 103.74290 | 16777 ft | 370 kts | 159° |
| 2026-05-09 04:22 | 30.50569 | 103.75221 | 16520 ft | 367 kts | 168° |
| 2026-05-09 04:23 | 30.48048 | 103.75708 | 16060 ft | 367 kts | 176° |
| 2026-05-09 04:23 | 30.45468 | 103.75723 | 15239 ft | 375 kts | 186° |
| 2026-05-09 04:23 | 30.42883 | 103.75232 | 14486 ft | 380 kts | 195° |
| 2026-05-09 04:23 | 30.40396 | 103.74274 | 13715 ft | 383 kts | 202° |
| 2026-05-09 04:24 | 30.37932 | 103.73117 | 13291 ft | 376 kts | 202° |
| 2026-05-09 04:24 | 30.35555 | 103.72008 | 13203 ft | 361 kts | 202° |
| 2026-05-09 04:24 | 30.33264 | 103.70943 | 13122 ft | 350 kts | 202° |
| 2026-05-09 04:24 | 30.31011 | 103.69896 | 13033 ft | 348 kts | 202° |
| 2026-05-09 04:25 | 30.28770 | 103.68855 | 12881 ft | 347 kts | 202° |
| 2026-05-09 04:25 | 30.26533 | 103.67813 | 12725 ft | 346 kts | 202° |
| 2026-05-09 04:25 | 30.24299 | 103.66771 | 12567 ft | 345 kts | 202° |
| 2026-05-09 04:25 | 30.22074 | 103.65734 | 12409 ft | 344 kts | 202° |
| 2026-05-09 04:26 | 30.19852 | 103.64794 | 12244 ft | 336 kts | 192° |
| 2026-05-09 04:26 | 30.17579 | 103.64835 | 12082 ft | 325 kts | 164° |
| 2026-05-09 04:26 | 30.15615 | 103.66074 | 11616 ft | 325 kts | 134° |
| 2026-05-09 04:26 | 30.14415 | 103.68243 | 11195 ft | 322 kts | 109° |
| 2026-05-09 04:27 | 30.13844 | 103.70752 | 10738 ft | 324 kts | 100° |
| 2026-05-09 04:27 | 30.13505 | 103.73335 | 10216 ft | 326 kts | 88° |
| 2026-05-09 04:27 | 30.14070 | 103.75852 | 9641 ft | 328 kts | 59° |
| 2026-05-09 04:27 | 30.15627 | 103.77717 | 9280 ft | 323 kts | 32° |
| 2026-05-09 04:28 | 30.17638 | 103.78837 | 8868 ft | 321 kts | 20° |
| 2026-05-09 04:28 | 30.19764 | 103.79584 | 8482 ft | 317 kts | 15° |
| 2026-05-09 04:28 | 30.21856 | 103.80212 | 7940 ft | 306 kts | 12° |
| 2026-05-09 04:28 | 30.23913 | 103.80708 | 7426 ft | 296 kts | 15° |
| 2026-05-09 04:29 | 30.25814 | 103.81495 | 7060 ft | 285 kts | 22° |
| 2026-05-09 04:29 | 30.27617 | 103.82373 | 6694 ft | 277 kts | 22° |
| 2026-05-09 04:29 | 30.29375 | 103.83202 | 6344 ft | 269 kts | 21° |
| 2026-05-09 04:29 | 30.31086 | 103.83991 | 5992 ft | 260 kts | 21° |
| 2026-05-09 04:30 | 30.32743 | 103.84756 | 5648 ft | 252 kts | 21° |
| 2026-05-09 04:30 | 30.34342 | 103.85497 | 5329 ft | 243 kts | 21° |
| 2026-05-09 04:30 | 30.35880 | 103.86209 | 5015 ft | 234 kts | 21° |
| 2026-05-09 04:30 | 30.37365 | 103.86897 | 4715 ft | 225 kts | 21° |
| 2026-05-09 04:31 | 30.38783 | 103.87554 | 4409 ft | 213 kts | 21° |
| 2026-05-09 04:31 | 30.40151 | 103.88188 | 3936 ft | 211 kts | 22° |
| 2026-05-09 04:31 | 30.41472 | 103.88801 | 3819 ft | 197 kts | 22° |
| 2026-05-09 04:31 | 30.42698 | 103.89370 | 3607 ft | 184 kts | 22° |
| 2026-05-09 04:32 | 30.43847 | 103.89903 | 3399 ft | 171 kts | 22° |
| 2026-05-09 04:32 | 30.44915 | 103.90398 | 3179 ft | 159 kts | 22° |
| 2026-05-09 04:32 | 30.45913 | 103.90861 | 2990 ft | 148 kts | 22° |
| 2026-05-09 04:32 | 30.46853 | 103.91298 | 2787 ft | 143 kts | 22° |
| 2026-05-09 04:33 | 30.47771 | 103.91724 | 2600 ft | 141 kts | 22° |
| 2026-05-09 04:33 | 30.48679 | 103.92146 | 2414 ft | 140 kts | 22° |
| 2026-05-09 04:33 | 30.49583 | 103.92566 | 2229 ft | 139 kts | 21° |
| 2026-05-09 04:33 | 30.50483 | 103.92985 | 2051 ft | 139 kts | 21° |
| 2026-05-09 04:34 | 30.51379 | 103.93401 | 1858 ft | 138 kts | 21° |
| 2026-05-09 04:34 | 30.52272 | 103.93816 | 1680 ft | 138 kts | 21° |
| 2026-05-09 04:34 | 30.53075 | 103.94190 | 1665 ft | 103 kts | 22° |
| 2026-05-09 04:34 | 30.53582 | 103.94426 | 1673 ft | 54 kts | 22° |
| 2026-05-09 04:35 | 30.53871 | 103.94562 | 1652 ft | 44 kts | 21° |
| 2026-05-09 04:35 | 30.54160 | 103.94625 | 1649 ft | 31 kts | 353° |
| 2026-05-09 04:35 | 30.54337 | 103.94582 | 1647 ft | 26 kts | 359° |
| 2026-05-09 04:35 | 30.54512 | 103.94634 | 1647 ft | 27 kts | 22° |
| 2026-05-09 04:36 | 30.54692 | 103.94714 | 1647 ft | 28 kts | 21° |
| 2026-05-09 04:36 | 30.54818 | 103.94729 | 1647 ft | 13 kts | 313° |
| 2026-05-09 04:36 | 30.54890 | 103.94699 | 1647 ft | 14 kts | 19° |
| 2026-05-09 04:36 | 30.55003 | 103.94748 | 1647 ft | 22 kts | 20° |
| 2026-05-09 04:37 | 30.55153 | 103.94816 | 1647 ft | 24 kts | 23° |
| 2026-05-09 04:37 | 30.55314 | 103.94896 | 1647 ft | 26 kts | 22° |
| 2026-05-09 04:37 | 30.55486 | 103.94977 | 1647 ft | 27 kts | 21° |
| 2026-05-09 04:37 | 30.55669 | 103.95060 | 1647 ft | 29 kts | 21° |
| 2026-05-09 04:38 | 30.55859 | 103.95147 | 1647 ft | 29 kts | 22° |
| 2026-05-09 04:38 | 30.56051 | 103.95238 | 1647 ft | 30 kts | 19° |
| 2026-05-09 04:38 | 30.56253 | 103.95319 | 1647 ft | 31 kts | 20° |
| 2026-05-09 04:38 | 30.56454 | 103.95414 | 1647 ft | 32 kts | 21° |
| 2026-05-09 04:39 | 30.56630 | 103.95492 | 1647 ft | 15 kts | 359° |
| 2026-05-09 04:39 | 30.56689 | 103.95426 | 1647 ft | 12 kts | 296° |
| 2026-05-09 04:39 | 30.56726 | 103.95328 | 1647 ft | 15 kts | 292° |
| 2026-05-09 04:39 | 30.56769 | 103.95204 | 1647 ft | 18 kts | 292° |
| 2026-05-09 04:40 | 30.56808 | 103.95101 | 1647 ft | 9 kts | 311° |
| 2026-05-09 04:40 | 30.56871 | 103.95116 | 1647 ft | 5 kts | 24° |
| 2026-05-09 04:40 | 30.56878 | 103.95119 | 1647 ft | 1 kts | 24° |